Time;durP1;ratioP1;P1;durP2;ratioP2;P2;SDS_P1;SDS_P2;PMS_P1;PMS_P2;Temp;Humidity;BMP_temperature;BMP_pressure;BME280_temperature;BME280_humidity;BME280_pressure;Samples;Min_cycle;Max_cycle;Signal;HPM_P1;HPM_P2
2023/09/05 00:00:47;;;;;;;4.70;4.30;;;16.00;99.90;;;;;;5053105;28;20443;-59
2023/09/05 00:03:16;;;;;;;5.27;4.30;;;16.00;99.90;;;;;;5053217;28;20479;-59
2023/09/05 00:05:43;;;;;;;5.37;4.37;;;16.00;99.90;;;;;;5053237;28;20451;-60
2023/09/05 00:08:11;;;;;;;5.00;4.47;;;15.90;99.90;;;;;;5053093;28;20447;-59
2023/09/05 00:10:37;;;;;;;6.00;4.90;;;15.90;99.90;;;;;;5053059;28;20451;-59
2023/09/05 00:13:05;;;;;;;7.10;4.03;;;15.90;99.90;;;;;;5052954;28;20463;-58
2023/09/05 00:15:32;;;;;;;6.10;3.87;;;15.90;99.90;;;;;;5052707;28;20444;-59
2023/09/05 00:17:59;;;;;;;4.73;4.07;;;15.90;99.90;;;;;;5053137;28;20444;-58
2023/09/05 00:20:26;;;;;;;7.33;4.87;;;15.80;99.90;;;;;;5053669;28;20486;-59
2023/09/05 00:22:53;;;;;;;4.90;4.40;;;15.80;99.90;;;;;;5053239;28;20464;-58
2023/09/05 00:25:21;;;;;;;4.73;3.80;;;15.80;99.90;;;;;;5052933;28;20446;-58
2023/09/05 00:27:48;;;;;;;8.40;4.30;;;15.70;99.90;;;;;;5054986;28;20435;-59
2023/09/05 00:30:16;;;;;;;6.93;4.93;;;15.70;99.90;;;;;;5056970;28;20443;-59
2023/09/05 00:32:43;;;;;;;5.30;4.80;;;15.70;99.90;;;;;;5069864;22;20576;-62
2023/09/05 00:35:11;;;;;;;4.60;4.20;;;15.60;99.90;;;;;;5036820;28;20539;-60
2023/09/05 00:37:38;;;;;;;6.80;4.60;;;15.60;99.90;;;;;;5036760;28;20515;-63
2023/09/05 00:40:05;;;;;;;6.20;4.60;;;15.50;99.90;;;;;;5037012;28;20452;-63
2023/09/05 00:42:33;;;;;;;5.10;4.67;;;15.50;99.90;;;;;;5036791;28;20448;-62
2023/09/05 00:45:00;;;;;;;5.70;4.50;;;15.50;99.90;;;;;;5036950;28;20441;-62
2023/09/05 00:47:30;;;;;;;6.33;5.00;;;15.50;99.90;;;;;;5036445;28;20815;-62
2023/09/05 00:49:58;;;;;;;5.47;4.63;;;15.40;99.90;;;;;;5036728;28;20547;-62
2023/09/05 00:52:28;;;;;;;6.70;4.83;;;15.40;99.90;;;;;;5036639;28;20464;-62
2023/09/05 00:54:55;;;;;;;5.50;5.00;;;15.30;99.90;;;;;;5036662;28;20483;-61
2023/09/05 00:57:23;;;;;;;6.67;5.27;;;15.30;99.90;;;;;;5036608;28;20476;-61
2023/09/05 00:59:52;;;;;;;6.23;4.70;;;15.30;99.90;;;;;;5036428;28;20464;-62
2023/09/05 01:02:18;;;;;;;6.77;5.73;;;15.30;99.90;;;;;;5036489;28;20463;-62
2023/09/05 01:04:45;;;;;;;7.00;4.90;;;15.30;99.90;;;;;;5037125;28;20433;-62
2023/09/05 01:07:20;;;;;;;4.73;4.23;;;15.30;99.90;;;;;;5036440;28;20445;-62
2023/09/05 01:09:54;;;;;;;7.60;4.90;;;15.20;99.90;;;;;;5036395;28;20428;-62
2023/09/05 01:12:21;;;;;;;7.03;4.40;;;15.20;99.90;;;;;;5036325;28;20460;-62
2023/09/05 01:14:48;;;;;;;4.80;4.30;;;15.20;99.90;;;;;;5036303;28;20459;-62
2023/09/05 01:17:16;;;;;;;8.40;5.00;;;15.20;99.90;;;;;;5036136;28;20854;-62
2023/09/05 01:19:43;;;;;;;8.63;4.80;;;15.10;99.90;;;;;;5036507;28;20441;-62
2023/09/05 01:22:19;;;;;;;8.43;5.90;;;15.20;99.90;;;;;;5036053;28;20561;-62
2023/09/05 01:24:49;;;;;;;5.73;4.83;;;15.10;99.90;;;;;;5036126;28;20425;-62
2023/09/05 01:27:19;;;;;;;6.70;4.30;;;15.10;99.90;;;;;;5036514;28;20527;-62
2023/09/05 01:29:46;;;;;;;6.00;5.10;;;15.10;99.90;;;;;;5036126;28;20499;-62
2023/09/05 01:32:14;;;;;;;6.60;4.63;;;15.10;99.90;;;;;;5036172;28;20473;-62
2023/09/05 01:34:41;;;;;;;5.30;4.77;;;15.00;99.90;;;;;;5036074;28;20445;-61
2023/09/05 01:37:10;;;;;;;6.10;4.50;;;15.00;99.90;;;;;;5035936;28;20481;-62
2023/09/05 01:39:37;;;;;;;5.57;4.67;;;15.00;99.90;;;;;;5035452;28;20445;-62
2023/09/05 01:42:05;;;;;;;7.33;5.50;;;15.00;99.90;;;;;;5035947;28;20465;-62
2023/09/05 01:44:34;;;;;;;5.70;5.10;;;15.00;99.90;;;;;;5036222;28;20441;-62
2023/09/05 01:47:01;;;;;;;5.90;5.30;;;14.90;99.90;;;;;;5036333;28;20472;-62
2023/09/05 01:49:28;;;;;;;6.20;5.60;;;14.90;99.90;;;;;;5036158;28;20448;-62
2023/09/05 01:51:55;;;;;;;4.93;4.43;;;14.90;99.90;;;;;;5035878;28;20464;-62
2023/09/05 01:54:21;;;;;;;4.83;4.40;;;14.90;99.90;;;;;;5036025;28;20451;-62
2023/09/05 01:56:48;;;;;;;5.80;4.93;;;14.90;99.90;;;;;;5035766;28;20477;-62
2023/09/05 01:59:19;;;;;;;4.90;4.50;;;14.90;99.90;;;;;;5035445;28;20448;-61
2023/09/05 02:01:45;;;;;;;6.00;4.90;;;14.90;99.90;;;;;;5035244;28;20467;-62
2023/09/05 02:04:12;;;;;;;9.13;5.00;;;14.80;99.90;;;;;;5035182;28;20445;-62
2023/09/05 02:06:39;;;;;;;7.50;5.40;;;14.80;99.90;;;;;;5035108;28;20455;-62
2023/09/05 02:09:06;;;;;;;6.47;4.97;;;14.80;99.90;;;;;;5035208;28;20452;-62
2023/09/05 02:11:33;;;;;;;5.50;5.00;;;14.80;99.90;;;;;;5034768;28;20973;-62
2023/09/05 02:13:59;;;;;;;7.47;4.80;;;14.80;99.90;;;;;;5034811;28;20961;-62
2023/09/05 02:16:27;;;;;;;6.10;5.50;;;14.80;99.90;;;;;;5035034;28;20445;-62
2023/09/05 02:18:54;;;;;;;5.30;4.80;;;14.80;99.90;;;;;;5035089;28;20445;-62
2023/09/05 02:21:21;;;;;;;6.60;6.00;;;14.80;99.90;;;;;;5034990;28;20445;-62
2023/09/05 02:23:48;;;;;;;9.47;5.47;;;14.80;99.90;;;;;;5035064;28;20879;-62
2023/09/05 02:26:15;;;;;;;5.70;5.20;;;14.80;99.90;;;;;;5034995;28;20441;-62
2023/09/05 02:28:41;;;;;;;5.50;5.00;;;14.70;99.90;;;;;;5035038;28;20447;-62
2023/09/05 02:31:08;;;;;;;6.60;4.97;;;14.80;99.90;;;;;;5034942;28;20437;-62
2023/09/05 02:33:37;;;;;;;6.00;5.43;;;14.70;99.90;;;;;;5034394;28;20837;-62
2023/09/05 02:36:15;;;;;;;5.50;4.90;;;14.70;99.90;;;;;;5034659;28;20855;-62
2023/09/05 02:38:42;;;;;;;6.37;4.90;;;14.70;99.90;;;;;;5034731;28;20421;-62
2023/09/05 02:41:12;;;;;;;5.60;4.97;;;14.70;99.90;;;;;;5034741;28;20437;-62
2023/09/05 02:43:39;;;;;;;5.70;4.90;;;14.70;99.90;;;;;;5034560;28;20490;-61
2023/09/05 02:46:06;;;;;;;5.70;4.70;;;14.70;99.90;;;;;;5034293;28;20957;-62
2023/09/05 02:48:33;;;;;;;5.07;4.67;;;14.70;99.90;;;;;;5034525;28;20532;-62
2023/09/05 02:51:06;;;;;;;6.03;4.37;;;14.70;99.90;;;;;;5033242;28;20973;-62
2023/09/05 02:53:33;;;;;;;6.73;5.97;;;14.70;99.90;;;;;;5034463;28;20453;-61
2023/09/05 02:56:00;;;;;;;7.50;5.17;;;14.70;99.90;;;;;;5034650;28;20433;-62
2023/09/05 02:58:28;;;;;;;6.77;4.50;;;14.70;99.90;;;;;;5034555;28;20483;-62
2023/09/05 03:01:00;;;;;;;6.43;5.37;;;14.60;99.90;;;;;;5034434;28;20451;-63
2023/09/05 03:03:27;;;;;;;7.00;4.67;;;14.60;99.90;;;;;;5034170;28;20979;-62
2023/09/05 03:05:54;;;;;;;5.13;4.50;;;14.60;99.90;;;;;;5034420;28;20441;-62
2023/09/05 03:08:22;;;;;;;5.87;5.10;;;14.60;99.90;;;;;;5034242;28;20452;-63
2023/09/05 03:10:51;;;;;;;5.60;5.00;;;14.60;99.90;;;;;;5034635;28;20464;-62
2023/09/05 03:13:18;;;;;;;5.23;4.70;;;14.60;99.90;;;;;;5034417;28;20473;-62
2023/09/05 03:15:45;;;;;;;5.90;5.30;;;14.60;99.90;;;;;;5034552;28;20445;-62
2023/09/05 03:18:11;;;;;;;5.33;4.67;;;14.60;99.90;;;;;;5034318;28;20480;-61
2023/09/05 03:20:38;;;;;;;6.93;5.40;;;14.60;99.90;;;;;;5034216;28;20444;-62
2023/09/05 03:23:05;;;;;;;5.10;4.57;;;14.50;99.90;;;;;;5033784;28;20468;-61
2023/09/05 03:25:33;;;;;;;7.43;4.77;;;14.50;99.90;;;;;;5034003;28;20441;-62
2023/09/05 03:28:00;;;;;;;6.30;5.43;;;14.50;99.90;;;;;;5034241;28;20464;-61
2023/09/05 03:30:26;;;;;;;5.57;5.03;;;14.50;99.90;;;;;;5034151;28;20441;-60
2023/09/05 03:32:53;;;;;;;6.97;5.80;;;14.50;99.90;;;;;;5033773;28;20944;-61
2023/09/05 03:35:20;;;;;;;6.77;5.60;;;14.50;99.90;;;;;;5033482;28;20975;-61
2023/09/05 03:37:47;;;;;;;6.93;5.23;;;14.50;99.90;;;;;;5033385;28;20484;-61
2023/09/05 03:40:13;;;;;;;7.10;4.83;;;14.50;99.90;;;;;;5032115;28;20444;-62
2023/09/05 03:42:43;;;;;;;6.63;5.30;;;14.50;99.90;;;;;;5033802;28;20464;-62
2023/09/05 03:45:11;;;;;;;6.70;6.00;;;14.50;99.90;;;;;;5034100;28;20859;-62
2023/09/05 03:47:37;;;;;;;6.57;5.93;;;14.40;99.90;;;;;;5034076;28;20448;-60
2023/09/05 03:50:05;;;;;;;7.10;5.50;;;14.40;99.90;;;;;;5033778;28;20833;-60
2023/09/05 03:52:32;;;;;;;6.60;5.77;;;14.40;99.90;;;;;;5033671;28;20461;-61
2023/09/05 03:54:59;;;;;;;6.80;5.47;;;14.40;99.90;;;;;;5033879;28;20451;-61
2023/09/05 03:57:26;;;;;;;6.80;5.47;;;14.40;99.90;;;;;;5033765;28;20483;-61
2023/09/05 03:59:54;;;;;;;6.43;5.90;;;14.40;99.90;;;;;;5033662;28;20433;-60
2023/09/05 04:02:20;;;;;;;8.03;6.17;;;14.30;99.90;;;;;;5033111;28;20457;-60
2023/09/05 04:04:47;;;;;;;6.87;6.20;;;14.30;99.90;;;;;;5033730;28;20444;-61
2023/09/05 04:07:14;;;;;;;6.93;6.23;;;14.30;99.90;;;;;;5033951;28;20440;-61
2023/09/05 04:12:10;;;;;;;7.00;6.40;;;14.30;99.90;;;;;;5090786;27;20988;-60
2023/09/05 04:14:37;;;;;;;6.80;6.10;;;14.30;99.90;;;;;;5091949;28;20446;-60
2023/09/05 04:17:04;;;;;;;8.90;6.53;;;14.30;99.90;;;;;;5091466;28;20454;-60
2023/09/05 04:19:30;;;;;;;7.00;6.30;;;14.30;99.90;;;;;;5090593;28;20442;-61
2023/09/05 04:21:58;;;;;;;6.60;6.00;;;14.20;99.90;;;;;;5090502;28;20478;-61
2023/09/05 04:24:25;;;;;;;6.83;6.23;;;14.20;99.90;;;;;;5090527;28;20438;-61
2023/09/05 04:26:53;;;;;;;7.47;6.77;;;14.20;99.90;;;;;;5090515;28;20435;-61
2023/09/05 04:29:21;;;;;;;8.00;6.43;;;14.20;99.90;;;;;;5090431;28;20438;-62
2023/09/05 04:31:48;;;;;;;8.80;6.10;;;14.20;99.90;;;;;;5090060;28;20493;-62
2023/09/05 04:34:16;;;;;;;8.67;5.77;;;14.20;99.90;;;;;;5090406;28;20818;-62
2023/09/05 04:36:42;;;;;;;6.90;6.23;;;14.10;99.90;;;;;;5089894;28;20550;-63
2023/09/05 04:39:10;;;;;;;9.10;6.50;;;14.20;99.90;;;;;;5090328;28;20442;-62
2023/09/05 04:41:36;;;;;;;7.50;6.50;;;14.20;99.90;;;;;;5090204;28;20442;-62
2023/09/05 04:44:03;;;;;;;7.23;6.47;;;14.20;99.90;;;;;;5089991;28;20447;-62
2023/09/05 04:46:37;;;;;;;6.50;5.93;;;14.20;99.90;;;;;;5090080;28;20439;-62
2023/09/05 04:49:04;;;;;;;8.90;6.90;;;14.20;99.90;;;;;;5089967;28;20425;-62
2023/09/05 04:51:31;;;;;;;6.97;5.80;;;14.30;99.90;;;;;;5089510;28;20999;-62
2023/09/05 04:53:57;;;;;;;9.33;6.57;;;14.30;99.90;;;;;;5090076;28;20441;-63
2023/09/05 04:56:24;;;;;;;6.70;6.10;;;14.30;99.90;;;;;;5090301;28;20451;-62
2023/09/05 04:58:51;;;;;;;9.53;6.37;;;14.30;99.90;;;;;;5089852;28;20445;-62
2023/09/05 05:01:18;;;;;;;6.57;5.97;;;14.30;99.90;;;;;;5089417;28;20537;-63
2023/09/05 05:03:46;;;;;;;7.30;6.20;;;14.40;99.90;;;;;;5090010;28;20462;-62
2023/09/05 05:06:13;;;;;;;6.90;6.07;;;14.40;99.90;;;;;;5089648;28;20435;-62
2023/09/05 05:08:40;;;;;;;8.60;5.60;;;14.50;99.90;;;;;;5089322;28;20804;-62
2023/09/05 05:11:07;;;;;;;5.90;5.30;;;14.60;99.90;;;;;;5089681;28;20485;-61
2023/09/05 05:13:34;;;;;;;6.40;5.57;;;14.70;99.90;;;;;;5089211;28;21001;-61
2023/09/05 05:16:00;;;;;;;8.03;5.80;;;14.80;99.90;;;;;;5089728;28;20442;-62
2023/09/05 05:18:27;;;;;;;6.20;4.70;;;14.90;99.90;;;;;;5089707;28;20461;-62
2023/09/05 05:20:55;;;;;;;6.13;5.43;;;15.00;99.90;;;;;;5089713;28;20443;-62
2023/09/05 05:23:22;;;;;;;6.80;5.30;;;15.10;99.90;;;;;;5076376;28;20988;-62
2023/09/05 05:25:49;;;;;;;7.20;5.53;;;15.20;99.90;;;;;;5075938;28;20439;-60
2023/09/05 05:28:15;;;;;;;5.67;5.13;;;15.20;99.90;;;;;;5075574;28;20955;-61
2023/09/05 05:30:42;;;;;;;9.33;5.83;;;15.20;99.90;;;;;;5075214;28;20471;-63
2023/09/05 05:33:09;;;;;;;13.47;6.40;;;15.30;99.90;;;;;;5075673;28;20451;-62
2023/09/05 05:35:36;;;;;;;6.23;5.30;;;15.30;99.90;;;;;;5075480;28;20959;-63
2023/09/05 05:38:04;;;;;;;7.37;5.90;;;15.30;99.90;;;;;;5075402;28;20986;-62
2023/09/05 05:40:32;;;;;;;6.63;5.83;;;15.30;99.90;;;;;;5075361;28;20929;-63
2023/09/05 05:42:58;;;;;;;8.10;5.83;;;15.40;99.90;;;;;;5075549;28;20851;-60
2023/09/05 05:45:25;;;;;;;8.90;5.50;;;15.40;99.90;;;;;;5075842;28;20442;-61
2023/09/05 05:47:53;;;;;;;8.23;5.97;;;15.50;99.90;;;;;;5075663;28;20537;-61
2023/09/05 05:50:20;;;;;;;7.97;5.80;;;15.60;99.90;;;;;;5074864;28;20505;-61
2023/09/05 05:52:46;;;;;;;11.50;5.43;;;15.70;99.90;;;;;;5075305;28;20463;-61
2023/09/05 05:55:15;;;;;;;7.63;5.60;;;15.80;99.90;;;;;;5075444;28;20996;-62
2023/09/05 05:57:42;;;;;;;5.30;4.80;;;15.80;99.90;;;;;;5075426;28;20443;-61
2023/09/05 06:00:09;;;;;;;8.57;5.30;;;16.00;99.90;;;;;;5075574;28;20534;-61
2023/09/05 06:02:36;;;;;;;7.17;4.77;;;16.10;99.90;;;;;;5074961;28;20981;-62
2023/09/05 06:05:03;;;;;;;8.00;5.00;;;16.10;99.90;;;;;;5075678;28;20439;-63
2023/09/05 06:07:29;;;;;;;5.90;5.20;;;16.30;99.90;;;;;;5075568;28;20443;-62
2023/09/05 06:09:56;;;;;;;7.73;5.17;;;16.40;99.90;;;;;;5074749;28;20471;-62
2023/09/05 06:12:24;;;;;;;5.90;5.30;;;16.50;99.90;;;;;;5074910;28;20884;-63
2023/09/05 06:14:51;;;;;;;6.87;4.67;;;16.60;99.90;;;;;;5074974;28;20966;-61
2023/09/05 06:17:18;;;;;;;8.60;5.10;;;16.70;99.90;;;;;;5074483;28;20526;-61
2023/09/05 06:19:44;;;;;;;7.60;5.50;;;16.80;99.90;;;;;;5074518;28;20975;-62
2023/09/05 06:22:11;;;;;;;5.80;4.40;;;16.90;99.90;;;;;;5074601;28;20451;-63
2023/09/05 06:24:38;;;;;;;7.53;5.07;;;17.10;99.90;;;;;;5074709;28;20446;-62
2023/09/05 06:27:05;;;;;;;7.87;5.37;;;17.20;99.90;;;;;;5074519;28;20449;-61
2023/09/05 06:29:33;;;;;;;8.03;4.80;;;17.30;99.90;;;;;;5074520;28;20518;-62
2023/09/05 06:32:00;;;;;;;3.93;3.53;;;17.50;99.90;;;;;;5074809;28;20483;-63
2023/09/05 06:34:27;;;;;;;5.47;3.67;;;17.60;99.90;;;;;;5073578;28;20439;-62
2023/09/05 06:36:54;;;;;;;5.23;3.50;;;17.70;99.90;;;;;;5074488;28;20439;-63
2023/09/05 06:39:20;;;;;;;5.30;3.50;;;17.90;99.90;;;;;;5074354;28;20439;-62
2023/09/05 06:41:47;;;;;;;3.83;3.20;;;18.00;99.90;;;;;;5073577;28;20467;-61
2023/09/05 06:44:15;;;;;;;3.63;2.77;;;18.20;99.90;;;;;;5074113;28;20953;-61
2023/09/05 06:46:43;;;;;;;4.50;3.80;;;18.40;99.90;;;;;;5074367;28;20445;-62
2023/09/05 06:49:10;;;;;;;6.00;4.50;;;18.60;99.90;;;;;;5074458;28;20554;-61
2023/09/05 06:51:36;;;;;;;6.23;3.00;;;18.70;99.90;;;;;;5074385;28;20498;-62
2023/09/05 06:54:03;;;;;;;4.97;3.70;;;18.80;99.90;;;;;;5074462;28;20580;-61
2023/09/05 06:56:30;;;;;;;8.03;2.80;;;18.90;99.90;;;;;;5074418;28;20465;-62
2023/09/05 06:58:57;;;;;;;4.53;2.60;;;19.10;99.90;;;;;;5074082;28;20455;-62
2023/09/05 07:01:23;;;;;;;5.40;3.20;;;19.20;99.90;;;;;;5074068;28;20439;-61
2023/09/05 07:03:52;;;;;;;5.07;3.07;;;19.30;99.90;;;;;;5074098;28;20918;-61
2023/09/05 07:06:19;;;;;;;3.17;2.60;;;19.40;99.90;;;;;;5074714;28;20547;-63
2023/09/05 07:08:47;;;;;;;5.07;3.30;;;19.50;99.90;;;;;;5074091;28;20820;-62
2023/09/05 07:11:13;;;;;;;6.90;3.53;;;19.60;99.90;;;;;;5073922;28;20493;-63
2023/09/05 07:13:40;;;;;;;2.37;2.17;;;19.70;99.90;;;;;;5074287;28;20462;-61
2023/09/05 07:16:07;;;;;;;4.43;2.50;;;19.80;99.90;;;;;;5073802;28;20443;-63
2023/09/05 07:18:34;;;;;;;4.70;2.63;;;19.90;99.70;;;;;;5073798;28;20451;-61
2023/09/05 07:21:02;;;;;;;4.27;2.83;;;20.00;99.30;;;;;;5073816;28;20952;-62
2023/09/05 07:23:29;;;;;;;5.40;2.93;;;20.10;98.80;;;;;;5074106;28;20477;-60
2023/09/05 07:25:56;;;;;;;3.33;2.50;;;20.20;98.30;;;;;;5074009;28;20451;-62
2023/09/05 07:28:22;;;;;;;4.80;2.53;;;20.30;97.90;;;;;;5073636;28;20447;-62
2023/09/05 07:30:49;;;;;;;4.27;2.60;;;20.40;97.50;;;;;;5073901;28;20441;-61
2023/09/05 07:33:16;;;;;;;3.43;2.40;;;20.50;97.00;;;;;;5074257;28;20527;-58
2023/09/05 07:35:44;;;;;;;2.93;2.70;;;20.60;96.50;;;;;;5073613;28;20466;-62
2023/09/05 07:38:14;;;;;;;3.30;2.50;;;20.70;96.00;;;;;;5073719;28;20443;-61
2023/09/05 07:40:41;;;;;;;3.17;2.87;;;20.80;95.50;;;;;;5073550;28;20485;-62
2023/09/05 07:43:08;;;;;;;2.77;2.30;;;20.90;95.00;;;;;;5073315;28;20470;-61
2023/09/05 07:45:35;;;;;;;3.57;2.53;;;20.90;94.60;;;;;;5073316;28;20442;-61
2023/09/05 07:48:02;;;;;;;4.43;2.77;;;21.10;94.30;;;;;;5073241;28;20439;-61
2023/09/05 07:50:29;;;;;;;5.50;2.40;;;21.20;93.80;;;;;;5073040;28;20454;-61
2023/09/05 07:52:55;;;;;;;5.07;2.87;;;21.30;93.30;;;;;;5072962;28;20535;-61
2023/09/05 07:55:24;;;;;;;3.97;2.90;;;21.40;92.70;;;;;;5072877;28;20969;-61
2023/09/05 07:57:51;;;;;;;2.83;2.53;;;21.50;92.20;;;;;;5072978;28;20439;-60
2023/09/05 08:00:19;;;;;;;4.83;2.80;;;21.60;91.70;;;;;;5073102;28;20439;-61
2023/09/05 08:02:46;;;;;;;5.37;2.43;;;21.60;91.10;;;;;;5073308;28;20495;-62
2023/09/05 08:05:13;;;;;;;5.00;2.70;;;21.70;90.60;;;;;;5072797;28;20496;-63
2023/09/05 08:07:40;;;;;;;3.53;2.60;;;21.80;90.20;;;;;;5073516;28;20632;-62
2023/09/05 08:10:08;;;;;;;4.07;2.60;;;22.00;89.80;;;;;;5072800;28;20945;-61
2023/09/05 08:12:36;;;;;;;3.07;2.40;;;22.10;89.00;;;;;;5072955;28;20490;-60
2023/09/05 08:15:05;;;;;;;2.37;1.80;;;22.20;87.80;;;;;;5072533;28;20821;-60
2023/09/05 08:17:32;;;;;;;2.93;2.23;;;22.30;86.50;;;;;;5072354;28;20988;-61
2023/09/05 08:19:59;;;;;;;3.60;2.27;;;22.40;85.10;;;;;;5072708;28;20557;-61
2023/09/05 08:22:26;;;;;;;5.70;2.80;;;22.50;83.80;;;;;;5073144;28;20463;-61
2023/09/05 08:24:53;;;;;;;3.30;2.70;;;22.60;82.30;;;;;;5073128;28;20451;-60
2023/09/05 08:27:28;;;;;;;7.60;2.60;;;22.70;80.80;;;;;;5072845;28;20447;-61
2023/09/05 08:29:57;;;;;;;2.70;2.50;;;22.80;79.30;;;;;;5072979;28;20423;-62
2023/09/05 08:32:23;;;;;;;4.07;1.97;;;22.90;77.80;;;;;;5072739;28;20552;-62
2023/09/05 08:34:50;;;;;;;2.07;1.87;;;23.00;76.70;;;;;;5072855;28;20469;-62
2023/09/05 08:37:17;;;;;;;3.03;2.10;;;23.10;75.60;;;;;;5073237;28;20553;-62
2023/09/05 08:39:44;;;;;;;2.40;2.20;;;23.20;74.60;;;;;;5072598;28;20963;-62
2023/09/05 08:42:11;;;;;;;2.17;1.77;;;23.30;73.70;;;;;;5072943;28;20452;-61
2023/09/05 08:44:41;;;;;;;4.00;2.23;;;23.40;73.10;;;;;;5072468;28;20443;-64
2023/09/05 08:47:09;;;;;;;2.83;2.40;;;23.50;72.40;;;;;;5072977;28;20845;-61
2023/09/05 08:49:37;;;;;;;3.47;2.60;;;23.50;71.50;;;;;;5072907;28;20446;-61
2023/09/05 08:52:06;;;;;;;2.77;2.53;;;23.60;70.80;;;;;;5072780;28;20487;-62
2023/09/05 08:54:33;;;;;;;9.57;2.50;;;23.70;70.20;;;;;;5072775;28;20447;-62
2023/09/05 08:57:03;;;;;;;5.37;2.07;;;23.80;69.50;;;;;;5073275;28;20438;-61
2023/09/05 08:59:31;;;;;;;18.70;4.60;;;23.90;69.00;;;;;;5076945;28;20446;-61
2023/09/05 09:01:59;;;;;;;2.07;1.87;;;24.00;68.30;;;;;;5076543;28;20466;-61
2023/09/05 09:04:27;;;;;;;7.83;3.00;;;24.10;67.60;;;;;;5076889;28;20443;-60
2023/09/05 09:06:56;;;;;;;2.30;2.10;;;24.20;66.80;;;;;;5076291;28;20933;-62
2023/09/05 09:09:34;;;;;;;2.23;2.03;;;24.40;66.40;;;;;;5076360;28;20439;-61
2023/09/05 09:12:01;;;;;;;6.57;2.40;;;24.40;65.50;;;;;;5076190;28;20487;-63
2023/09/05 09:14:28;;;;;;;2.37;2.17;;;24.50;64.80;;;;;;5076783;28;20537;-62
2023/09/05 09:16:55;;;;;;;5.97;2.30;;;24.60;64.20;;;;;;5076602;28;20479;-62
2023/09/05 09:19:21;;;;;;;4.40;2.70;;;24.50;63.70;;;;;;5076527;28;20453;-61
2023/09/05 09:21:50;;;;;;;2.53;2.23;;;24.60;63.60;;;;;;5076167;28;20991;-62
2023/09/05 09:24:18;;;;;;;5.50;2.60;;;24.70;63.50;;;;;;5076432;28;20447;-59
2023/09/05 09:26:45;;;;;;;5.27;2.10;;;24.80;63.10;;;;;;5076405;28;20541;-61
2023/09/05 09:29:12;;;;;;;3.13;2.30;;;25.00;62.80;;;;;;5077172;28;20443;-62
2023/09/05 09:31:40;;;;;;;2.37;2.17;;;25.10;62.30;;;;;;5076013;28;20458;-61
2023/09/05 09:34:08;;;;;;;3.30;2.20;;;25.20;61.90;;;;;;5076130;28;20929;-62
2023/09/05 09:36:37;;;;;;;3.20;2.27;;;25.20;61.30;;;;;;5076395;28;20474;-61
2023/09/05 09:39:09;;;;;;;2.60;1.87;;;25.30;60.80;;;;;;5076435;28;20529;-60
2023/09/05 09:41:43;;;;;;;5.03;3.33;;;25.30;60.40;;;;;;5076557;28;20426;-60
2023/09/05 09:44:10;;;;;;;4.10;2.20;;;25.50;60.20;;;;;;5075900;28;20430;-62
2023/09/05 09:46:36;;;;;;;5.00;2.13;;;25.50;59.80;;;;;;5075474;28;20827;-62
2023/09/05 09:49:08;;;;;;;3.77;2.63;;;25.50;59.40;;;;;;5075833;28;20447;-62
2023/09/05 09:51:36;;;;;;;2.40;2.13;;;25.60;59.20;;;;;;5076189;28;20431;-61
2023/09/05 09:54:07;;;;;;;2.40;2.03;;;25.70;59.10;;;;;;5075739;28;20439;-63
2023/09/05 09:56:37;;;;;;;4.33;2.50;;;25.70;58.80;;;;;;5075988;28;20430;-61
2023/09/05 09:59:05;;;;;;;2.40;1.90;;;25.80;58.50;;;;;;5075735;28;20530;-61
2023/09/05 10:01:32;;;;;;;2.20;1.93;;;25.90;58.10;;;;;;5075535;28;20438;-61
2023/09/05 10:03:59;;;;;;;5.53;2.53;;;25.90;57.90;;;;;;5076067;28;20445;-62
2023/09/05 10:06:28;;;;;;;3.70;2.17;;;26.00;57.60;;;;;;5076293;28;20445;-60
2023/09/05 10:08:55;;;;;;;3.07;2.17;;;26.10;57.50;;;;;;5075453;28;20451;-61
2023/09/05 10:11:23;;;;;;;2.80;2.40;;;26.20;57.40;;;;;;5075599;28;20971;-62
2023/09/05 10:13:51;;;;;;;3.13;1.97;;;26.20;57.20;;;;;;5076075;28;20486;-61
2023/09/05 10:16:19;;;;;;;4.47;2.27;;;26.20;57.00;;;;;;5076570;28;20806;-58
2023/09/05 10:18:47;;;;;;;3.67;2.50;;;26.30;56.70;;;;;;5075659;28;20439;-61
2023/09/05 10:21:16;;;;;;;2.83;1.93;;;26.40;56.50;;;;;;5075227;28;20449;-61
2023/09/05 10:23:43;;;;;;;2.13;1.63;;;26.50;56.40;;;;;;5075314;28;20537;-60
2023/09/05 10:26:13;;;;;;;4.47;1.80;;;26.50;56.30;;;;;;5075412;28;20945;-61
2023/09/05 10:28:39;;;;;;;2.80;1.90;;;26.60;56.10;;;;;;5074811;28;20933;-62
2023/09/05 10:31:12;;;;;;;2.70;2.17;;;26.80;55.90;;;;;;5074778;28;20813;-61
2023/09/05 10:33:43;;;;;;;3.40;1.90;;;26.90;55.60;;;;;;5074748;28;20482;-61
2023/09/05 10:36:40;;;;;;;4.27;2.20;;;27.00;55.30;;;;;;5074939;28;20447;-61
2023/09/05 10:39:18;;;;;;;5.33;2.23;;;27.10;54.90;;;;;;5075020;28;20791;-60
2023/09/05 10:41:45;;;;;;;2.53;2.30;;;27.20;54.70;;;;;;5074927;28;20431;-61
2023/09/05 10:44:12;;;;;;;2.70;1.83;;;27.30;54.50;;;;;;5075302;28;20526;-61
2023/09/05 10:46:41;;;;;;;3.50;2.10;;;27.30;54.30;;;;;;5075061;28;20525;-60
2023/09/05 10:49:13;;;;;;;2.20;1.70;;;27.40;54.30;;;;;;5076320;28;20796;-60
2023/09/05 10:52:14;;;;;;;5.40;2.60;;;27.50;54.10;;;;;;5074988;28;20439;-61
2023/09/05 10:54:41;;;;;;;3.50;2.57;;;27.60;53.80;;;;;;5076910;28;20419;-61
2023/09/05 10:57:33;;;;;;;2.50;2.00;;;27.70;53.60;;;;;;5074741;28;20925;-63
2023/09/05 11:00:00;;;;;;;2.90;2.20;;;27.80;53.20;;;;;;5074852;28;20466;-62
2023/09/05 11:02:31;;;;;;;3.23;2.20;;;27.90;53.10;;;;;;5075344;28;20458;-61
2023/09/05 11:04:58;;;;;;;2.37;1.40;;;27.90;52.80;;;;;;5077688;28;20436;-61
2023/09/05 11:07:25;;;;;;;2.47;1.47;;;28.00;52.50;;;;;;5078113;28;20447;-62
2023/09/05 11:09:54;;;;;;;1.93;1.50;;;28.10;52.40;;;;;;5074654;28;20465;-62
2023/09/05 11:12:21;;;;;;;1.57;1.47;;;28.10;51.70;;;;;;5074056;28;20489;-64
2023/09/05 11:14:48;;;;;;;1.90;1.70;;;28.00;51.20;;;;;;5074219;28;20457;-63
2023/09/05 11:17:16;;;;;;;2.67;1.57;;;28.00;51.10;;;;;;5074406;28;20446;-61
2023/09/05 11:19:47;;;;;;;2.07;1.70;;;28.00;51.10;;;;;;5074155;28;20567;-62
2023/09/05 11:22:17;;;;;;;2.63;1.63;;;28.10;51.20;;;;;;5074497;28;20463;-62
2023/09/05 11:24:47;;;;;;;1.93;1.50;;;28.20;51.00;;;;;;5074621;28;20534;-63
2023/09/05 11:27:15;;;;;;;1.60;1.13;;;28.30;50.80;;;;;;5074773;28;20469;-62
2023/09/05 11:29:45;;;;;;;2.17;1.63;;;28.40;50.70;;;;;;5074015;28;20951;-63
2023/09/05 11:32:14;;;;;;;3.30;1.53;;;28.50;50.60;;;;;;5074792;28;20558;-63
2023/09/05 11:34:47;;;;;;;1.93;1.60;;;28.60;50.30;;;;;;5075267;28;20443;-63
2023/09/05 11:37:19;;;;;;;2.23;1.40;;;28.60;49.80;;;;;;5074152;28;20431;-62
2023/09/05 11:39:47;;;;;;;4.03;1.57;;;28.70;49.60;;;;;;5074130;28;20471;-62
2023/09/05 11:42:23;;;;;;;2.03;1.53;;;28.70;49.20;;;;;;5073978;28;20459;-62
2023/09/05 11:44:52;;;;;;;3.50;1.77;;;28.80;49.00;;;;;;5074122;28;20438;-63
2023/09/05 11:47:21;;;;;;;3.20;1.57;;;28.80;49.00;;;;;;5073556;28;20949;-63
2023/09/05 11:49:50;;;;;;;3.90;1.40;;;28.80;49.10;;;;;;5074097;28;20455;-63
2023/09/05 11:52:18;;;;;;;1.80;1.53;;;28.80;49.10;;;;;;5074306;28;20542;-63
2023/09/05 11:54:47;;;;;;;3.70;1.47;;;28.90;49.00;;;;;;5073924;28;20790;-62
2023/09/05 11:57:15;;;;;;;1.87;1.60;;;29.00;48.90;;;;;;5074248;28;20868;-64
2023/09/05 11:59:42;;;;;;;2.50;1.50;;;29.10;48.90;;;;;;5074699;28;20451;-63
2023/09/05 12:02:09;;;;;;;2.20;1.47;;;29.10;48.80;;;;;;5074347;28;20466;-64
2023/09/05 12:04:37;;;;;;;2.07;1.60;;;29.20;48.80;;;;;;5074126;28;20925;-62
2023/09/05 12:07:08;;;;;;;1.87;1.30;;;29.20;48.70;;;;;;5073732;28;20522;-60
2023/09/05 12:09:36;;;;;;;1.53;1.20;;;29.20;48.60;;;;;;5073864;28;20450;-61
2023/09/05 12:12:11;;;;;;;2.13;1.23;;;29.30;48.60;;;;;;5073535;28;20471;-62
2023/09/05 12:14:52;;;;;;;3.00;1.60;;;29.30;48.50;;;;;;5073815;28;20427;-62
2023/09/05 12:17:21;;;;;;;1.83;1.70;;;29.30;48.40;;;;;;5073352;28;20936;-63
2023/09/05 12:19:48;;;;;;;5.67;1.80;;;29.30;48.50;;;;;;5073690;28;20442;-63
2023/09/05 12:22:37;;;;;;;3.93;1.73;;;29.30;48.40;;;;;;5074553;28;20546;-63
2023/09/05 12:25:17;;;;;;;4.40;1.67;;;29.40;48.90;;;;;;5069496;28;20500;-62
2023/09/05 12:27:45;;;;;;;1.80;1.20;;;29.40;48.30;;;;;;5074443;28;20430;-61
2023/09/05 12:30:26;;;;;;;3.70;2.53;;;29.40;48.30;;;;;;5073472;28;20443;-62
2023/09/05 12:32:55;;;;;;;2.93;1.50;;;29.50;48.20;;;;;;5086071;22;20498;-60
2023/09/05 12:35:22;;;;;;;2.43;1.37;;;29.50;48.20;;;;;;5036894;28;20456;-62
2023/09/05 12:37:50;;;;;;;2.60;1.50;;;29.50;48.10;;;;;;5036839;28;20460;-62
2023/09/05 12:40:17;;;;;;;1.60;1.50;;;29.60;48.20;;;;;;5036913;28;20460;-61
2023/09/05 12:42:44;;;;;;;1.93;1.40;;;29.60;48.80;;;;;;5036573;28;20463;-61
2023/09/05 12:45:11;;;;;;;2.63;1.70;;;29.70;48.20;;;;;;5036738;28;20451;-61
2023/09/05 12:47:38;;;;;;;4.63;1.60;;;29.70;48.10;;;;;;5036561;28;20432;-61
2023/09/05 12:50:10;;;;;;;2.60;1.40;;;29.80;48.10;;;;;;5036414;28;20441;-60
2023/09/05 12:52:37;;;;;;;7.07;1.93;;;29.80;48.00;;;;;;5035855;28;20483;-62